sensor_id;sensor_type;location;lat;lon;timestamp;P1;durP1;ratioP1;P2;durP2;ratioP2
29686;SDS011;16599;47.078;15.536;2023-05-15T00:00:22;30.10;;;17.45;;
29686;SDS011;16599;47.078;15.536;2023-05-15T00:02:49;33.50;;;16.98;;
29686;SDS011;16599;47.078;15.536;2023-05-15T00:05:16;27.80;;;17.05;;
29686;SDS011;16599;47.078;15.536;2023-05-15T00:07:43;29.70;;;17.95;;
29686;SDS011;16599;47.078;15.536;2023-05-15T00:10:11;47.05;;;17.15;;
29686;SDS011;16599;47.078;15.536;2023-05-15T00:12:37;44.85;;;18.05;;
29686;SDS011;16599;47.078;15.536;2023-05-15T00:15:04;80.75;;;18.25;;
29686;SDS011;16599;47.078;15.536;2023-05-15T00:17:32;212.60;;;19.13;;
29686;SDS011;16599;47.078;15.536;2023-05-15T00:19:59;65.55;;;16.77;;
29686;SDS011;16599;47.078;15.536;2023-05-15T00:22:26;78.32;;;17.15;;
29686;SDS011;16599;47.078;15.536;2023-05-15T00:24:52;137.25;;;18.48;;
29686;SDS011;16599;47.078;15.536;2023-05-15T00:27:19;145.23;;;19.13;;
29686;SDS011;16599;47.078;15.536;2023-05-15T00:29:46;51.35;;;17.38;;
29686;SDS011;16599;47.078;15.536;2023-05-15T00:32:13;36.25;;;17.02;;
29686;SDS011;16599;47.078;15.536;2023-05-15T00:34:40;28.83;;;16.88;;
29686;SDS011;16599;47.078;15.536;2023-05-15T00:37:07;31.83;;;17.77;;
29686;SDS011;16599;47.078;15.536;2023-05-15T00:39:34;36.83;;;18.42;;
29686;SDS011;16599;47.078;15.536;2023-05-15T00:42:02;28.02;;;17.35;;
29686;SDS011;16599;47.078;15.536;2023-05-15T00:44:30;33.13;;;18.80;;
29686;SDS011;16599;47.078;15.536;2023-05-15T00:46:57;31.02;;;17.98;;
29686;SDS011;16599;47.078;15.536;2023-05-15T00:49:26;31.73;;;17.83;;
29686;SDS011;16599;47.078;15.536;2023-05-15T00:51:57;27.58;;;16.92;;
29686;SDS011;16599;47.078;15.536;2023-05-15T00:54:27;24.50;;;15.40;;
29686;SDS011;16599;47.078;15.536;2023-05-15T00:56:55;28.08;;;17.20;;
29686;SDS011;16599;47.078;15.536;2023-05-15T00:59:29;30.27;;;16.73;;
29686;SDS011;16599;47.078;15.536;2023-05-15T01:01:57;25.55;;;15.73;;
29686;SDS011;16599;47.078;15.536;2023-05-15T01:04:24;34.30;;;15.68;;
29686;SDS011;16599;47.078;15.536;2023-05-15T01:06:51;24.40;;;15.10;;
29686;SDS011;16599;47.078;15.536;2023-05-15T01:09:19;19.92;;;13.93;;
29686;SDS011;16599;47.078;15.536;2023-05-15T01:11:49;21.35;;;13.60;;
29686;SDS011;16599;47.078;15.536;2023-05-15T01:14:18;20.25;;;14.02;;
29686;SDS011;16599;47.078;15.536;2023-05-15T01:16:45;21.02;;;13.73;;
29686;SDS011;16599;47.078;15.536;2023-05-15T01:19:12;22.45;;;14.10;;
29686;SDS011;16599;47.078;15.536;2023-05-15T01:29:55;21.35;;;13.70;;
29686;SDS011;16599;47.078;15.536;2023-05-15T01:35:40;19.30;;;13.02;;
29686;SDS011;16599;47.078;15.536;2023-05-15T01:40:50;19.95;;;11.80;;
29686;SDS011;16599;47.078;15.536;2023-05-15T01:43:36;16.42;;;11.45;;
29686;SDS011;16599;47.078;15.536;2023-05-15T01:46:05;14.70;;;10.85;;
29686;SDS011;16599;47.078;15.536;2023-05-15T01:48:33;19.02;;;12.65;;
29686;SDS011;16599;47.078;15.536;2023-05-15T01:51:02;113.45;;;59.03;;
29686;SDS011;16599;47.078;15.536;2023-05-15T01:53:31;89.05;;;49.65;;
29686;SDS011;16599;47.078;15.536;2023-05-15T01:56:00;39.17;;;23.70;;
29686;SDS011;16599;47.078;15.536;2023-05-15T01:58:29;25.73;;;14.38;;
29686;SDS011;16599;47.078;15.536;2023-05-15T02:00:57;23.92;;;14.88;;
29686;SDS011;16599;47.078;15.536;2023-05-15T02:03:25;21.50;;;14.52;;
29686;SDS011;16599;47.078;15.536;2023-05-15T02:05:52;23.80;;;13.50;;
29686;SDS011;16599;47.078;15.536;2023-05-15T02:08:21;23.17;;;13.80;;
29686;SDS011;16599;47.078;15.536;2023-05-15T02:10:50;21.55;;;14.18;;
29686;SDS011;16599;47.078;15.536;2023-05-15T02:13:18;23.05;;;13.48;;
29686;SDS011;16599;47.078;15.536;2023-05-15T02:15:46;27.23;;;14.73;;
29686;SDS011;16599;47.078;15.536;2023-05-15T02:18:13;31.00;;;15.15;;
29686;SDS011;16599;47.078;15.536;2023-05-15T02:20:40;28.73;;;14.25;;
29686;SDS011;16599;47.078;15.536;2023-05-15T02:23:07;22.98;;;12.55;;
29686;SDS011;16599;47.078;15.536;2023-05-15T02:25:38;19.05;;;11.10;;
29686;SDS011;16599;47.078;15.536;2023-05-15T02:28:46;18.10;;;12.27;;
29686;SDS011;16599;47.078;15.536;2023-05-15T02:31:25;27.20;;;14.93;;
29686;SDS011;16599;47.078;15.536;2023-05-15T02:34:50;25.25;;;13.93;;
29686;SDS011;16599;47.078;15.536;2023-05-15T02:37:18;17.77;;;12.27;;
29686;SDS011;16599;47.078;15.536;2023-05-15T02:39:49;16.02;;;10.25;;
29686;SDS011;16599;47.078;15.536;2023-05-15T02:42:19;16.73;;;10.82;;
29686;SDS011;16599;47.078;15.536;2023-05-15T02:44:47;18.88;;;11.32;;
29686;SDS011;16599;47.078;15.536;2023-05-15T02:47:16;16.80;;;9.52;;
29686;SDS011;16599;47.078;15.536;2023-05-15T02:49:44;20.25;;;11.32;;
29686;SDS011;16599;47.078;15.536;2023-05-15T02:52:12;19.42;;;11.23;;
29686;SDS011;16599;47.078;15.536;2023-05-15T02:54:39;18.17;;;12.13;;
29686;SDS011;16599;47.078;15.536;2023-05-15T02:57:06;19.35;;;11.25;;
29686;SDS011;16599;47.078;15.536;2023-05-15T02:59:35;22.25;;;11.07;;
29686;SDS011;16599;47.078;15.536;2023-05-15T03:02:02;20.23;;;11.55;;
29686;SDS011;16599;47.078;15.536;2023-05-15T03:04:30;62.17;;;13.18;;
29686;SDS011;16599;47.078;15.536;2023-05-15T03:06:57;53.38;;;12.98;;
29686;SDS011;16599;47.078;15.536;2023-05-15T03:09:24;258.95;;;14.73;;
29686;SDS011;16599;47.078;15.536;2023-05-15T03:11:51;166.57;;;11.95;;
29686;SDS011;16599;47.078;15.536;2023-05-15T03:14:17;374.48;;;15.25;;
29686;SDS011;16599;47.078;15.536;2023-05-15T03:16:44;361.55;;;15.55;;
29686;SDS011;16599;47.078;15.536;2023-05-15T03:19:11;354.65;;;15.70;;
29686;SDS011;16599;47.078;15.536;2023-05-15T03:21:38;154.82;;;14.18;;
29686;SDS011;16599;47.078;15.536;2023-05-15T03:24:05;98.95;;;15.45;;
29686;SDS011;16599;47.078;15.536;2023-05-15T03:26:32;54.25;;;14.75;;
29686;SDS011;16599;47.078;15.536;2023-05-15T03:28:59;188.88;;;14.73;;
29686;SDS011;16599;47.078;15.536;2023-05-15T03:31:27;204.07;;;15.02;;
29686;SDS011;16599;47.078;15.536;2023-05-15T03:33:54;46.97;;;14.23;;
29686;SDS011;16599;47.078;15.536;2023-05-15T03:36:21;146.30;;;13.85;;
29686;SDS011;16599;47.078;15.536;2023-05-15T03:38:47;133.82;;;15.57;;
29686;SDS011;16599;47.078;15.536;2023-05-15T03:41:14;46.22;;;14.07;;
29686;SDS011;16599;47.078;15.536;2023-05-15T03:43:41;30.73;;;13.32;;
29686;SDS011;16599;47.078;15.536;2023-05-15T03:46:08;53.75;;;14.43;;
29686;SDS011;16599;47.078;15.536;2023-05-15T03:48:35;31.45;;;13.90;;
29686;SDS011;16599;47.078;15.536;2023-05-15T03:51:02;71.78;;;14.93;;
29686;SDS011;16599;47.078;15.536;2023-05-15T03:53:29;36.88;;;13.90;;
29686;SDS011;16599;47.078;15.536;2023-05-15T03:55:55;171.20;;;16.27;;
29686;SDS011;16599;47.078;15.536;2023-05-15T03:58:22;24.73;;;14.13;;
29686;SDS011;16599;47.078;15.536;2023-05-15T04:00:49;47.45;;;14.10;;
29686;SDS011;16599;47.078;15.536;2023-05-15T04:03:16;81.35;;;14.18;;
29686;SDS011;16599;47.078;15.536;2023-05-15T04:05:44;29.52;;;13.57;;
29686;SDS011;16599;47.078;15.536;2023-05-15T04:08:15;37.90;;;13.63;;
29686;SDS011;16599;47.078;15.536;2023-05-15T04:10:42;27.10;;;13.23;;
29686;SDS011;16599;47.078;15.536;2023-05-15T04:13:08;28.80;;;13.18;;
29686;SDS011;16599;47.078;15.536;2023-05-15T04:15:35;55.08;;;23.58;;
29686;SDS011;16599;47.078;15.536;2023-05-15T04:18:02;39.83;;;21.30;;
29686;SDS011;16599;47.078;15.536;2023-05-15T04:20:29;32.35;;;22.23;;
29686;SDS011;16599;47.078;15.536;2023-05-15T04:22:56;24.75;;;16.88;;
29686;SDS011;16599;47.078;15.536;2023-05-15T04:25:23;22.38;;;13.77;;
29686;SDS011;16599;47.078;15.536;2023-05-15T04:27:50;30.02;;;16.58;;
29686;SDS011;16599;47.078;15.536;2023-05-15T04:30:17;30.30;;;16.63;;
29686;SDS011;16599;47.078;15.536;2023-05-15T04:32:44;31.67;;;16.63;;
29686;SDS011;16599;47.078;15.536;2023-05-15T04:35:11;27.60;;;15.57;;
29686;SDS011;16599;47.078;15.536;2023-05-15T04:37:39;30.67;;;16.00;;
29686;SDS011;16599;47.078;15.536;2023-05-15T04:40:07;23.83;;;14.43;;
29686;SDS011;16599;47.078;15.536;2023-05-15T04:42:35;27.42;;;15.23;;
29686;SDS011;16599;47.078;15.536;2023-05-15T04:45:04;26.02;;;15.05;;
29686;SDS011;16599;47.078;15.536;2023-05-15T04:47:32;28.70;;;15.45;;
29686;SDS011;16599;47.078;15.536;2023-05-15T04:49:59;24.95;;;14.40;;
29686;SDS011;16599;47.078;15.536;2023-05-15T04:52:26;23.52;;;14.23;;
29686;SDS011;16599;47.078;15.536;2023-05-15T04:54:53;22.65;;;13.98;;
29686;SDS011;16599;47.078;15.536;2023-05-15T04:57:22;22.98;;;14.45;;
29686;SDS011;16599;47.078;15.536;2023-05-15T04:59:50;19.92;;;13.32;;
29686;SDS011;16599;47.078;15.536;2023-05-15T05:02:21;20.92;;;13.60;;
29686;SDS011;16599;47.078;15.536;2023-05-15T05:04:48;22.87;;;13.83;;
29686;SDS011;16599;47.078;15.536;2023-05-15T05:07:15;22.10;;;12.50;;
29686;SDS011;16599;47.078;15.536;2023-05-15T05:09:42;26.67;;;15.50;;
29686;SDS011;16599;47.078;15.536;2023-05-15T05:12:09;18.85;;;12.10;;
29686;SDS011;16599;47.078;15.536;2023-05-15T05:14:36;17.92;;;11.55;;
29686;SDS011;16599;47.078;15.536;2023-05-15T05:17:05;17.67;;;11.60;;
29686;SDS011;16599;47.078;15.536;2023-05-15T05:19:32;15.77;;;11.68;;
29686;SDS011;16599;47.078;15.536;2023-05-15T05:21:59;14.98;;;10.73;;
29686;SDS011;16599;47.078;15.536;2023-05-15T05:24:30;13.65;;;10.82;;
29686;SDS011;16599;47.078;15.536;2023-05-15T05:26:57;14.30;;;10.80;;
29686;SDS011;16599;47.078;15.536;2023-05-15T05:29:24;17.85;;;12.20;;
29686;SDS011;16599;47.078;15.536;2023-05-15T05:31:51;15.38;;;11.13;;
29686;SDS011;16599;47.078;15.536;2023-05-15T05:34:18;25.05;;;12.45;;
29686;SDS011;16599;47.078;15.536;2023-05-15T05:36:45;15.05;;;11.15;;
29686;SDS011;16599;47.078;15.536;2023-05-15T05:39:13;12.15;;;10.35;;
29686;SDS011;16599;47.078;15.536;2023-05-15T05:41:42;13.27;;;10.15;;
29686;SDS011;16599;47.078;15.536;2023-05-15T05:44:09;14.43;;;9.15;;
29686;SDS011;16599;47.078;15.536;2023-05-15T05:46:36;13.35;;;9.88;;
29686;SDS011;16599;47.078;15.536;2023-05-15T05:49:03;12.40;;;9.38;;
29686;SDS011;16599;47.078;15.536;2023-05-15T05:51:30;11.20;;;8.88;;
29686;SDS011;16599;47.078;15.536;2023-05-15T05:53:57;11.65;;;9.38;;
29686;SDS011;16599;47.078;15.536;2023-05-15T05:56:24;443.00;;;230.95;;
29686;SDS011;16599;47.078;15.536;2023-05-15T05:58:51;26.35;;;16.67;;
29686;SDS011;16599;47.078;15.536;2023-05-15T06:01:19;13.30;;;8.43;;
29686;SDS011;16599;47.078;15.536;2023-05-15T06:03:46;8.50;;;7.60;;
29686;SDS011;16599;47.078;15.536;2023-05-15T06:06:13;9.13;;;7.22;;
29686;SDS011;16599;47.078;15.536;2023-05-15T06:08:40;9.07;;;6.10;;
29686;SDS011;16599;47.078;15.536;2023-05-15T06:11:07;8.45;;;6.35;;
29686;SDS011;16599;47.078;15.536;2023-05-15T06:13:34;9.93;;;7.03;;
29686;SDS011;16599;47.078;15.536;2023-05-15T06:16:01;8.30;;;7.00;;
29686;SDS011;16599;47.078;15.536;2023-05-15T06:18:27;8.73;;;6.60;;
29686;SDS011;16599;47.078;15.536;2023-05-15T06:20:54;7.90;;;6.43;;
29686;SDS011;16599;47.078;15.536;2023-05-15T06:23:24;9.07;;;6.80;;
29686;SDS011;16599;47.078;15.536;2023-05-15T06:25:51;8.07;;;6.18;;
29686;SDS011;16599;47.078;15.536;2023-05-15T06:28:18;9.90;;;6.22;;
29686;SDS011;16599;47.078;15.536;2023-05-15T06:30:45;11.55;;;6.38;;
29686;SDS011;16599;47.078;15.536;2023-05-15T06:33:12;8.93;;;6.10;;
29686;SDS011;16599;47.078;15.536;2023-05-15T06:35:39;6.57;;;5.90;;
29686;SDS011;16599;47.078;15.536;2023-05-15T06:38:06;12.80;;;6.40;;
29686;SDS011;16599;47.078;15.536;2023-05-15T06:40:33;12.73;;;6.47;;
29686;SDS011;16599;47.078;15.536;2023-05-15T06:43:00;9.90;;;5.95;;
29686;SDS011;16599;47.078;15.536;2023-05-15T06:45:26;6.25;;;5.35;;
29686;SDS011;16599;47.078;15.536;2023-05-15T06:47:54;6.60;;;4.97;;
29686;SDS011;16599;47.078;15.536;2023-05-15T06:50:21;5.43;;;3.90;;
29686;SDS011;16599;47.078;15.536;2023-05-15T06:52:48;6.55;;;4.20;;
29686;SDS011;16599;47.078;15.536;2023-05-15T06:55:15;7.32;;;4.25;;
29686;SDS011;16599;47.078;15.536;2023-05-15T06:57:41;5.10;;;3.72;;
29686;SDS011;16599;47.078;15.536;2023-05-15T07:00:08;8.30;;;3.55;;
29686;SDS011;16599;47.078;15.536;2023-05-15T07:02:36;3.60;;;3.25;;
29686;SDS011;16599;47.078;15.536;2023-05-15T07:05:03;3.33;;;3.03;;
29686;SDS011;16599;47.078;15.536;2023-05-15T07:07:30;6.22;;;3.20;;
29686;SDS011;16599;47.078;15.536;2023-05-15T07:09:57;10.95;;;4.50;;
29686;SDS011;16599;47.078;15.536;2023-05-15T07:12:24;7.82;;;3.60;;
29686;SDS011;16599;47.078;15.536;2023-05-15T07:14:51;5.85;;;3.50;;
29686;SDS011;16599;47.078;15.536;2023-05-15T07:17:18;4.80;;;3.03;;
29686;SDS011;16599;47.078;15.536;2023-05-15T07:19:45;5.50;;;2.78;;
29686;SDS011;16599;47.078;15.536;2023-05-15T07:22:12;6.75;;;2.90;;
29686;SDS011;16599;47.078;15.536;2023-05-15T07:24:38;5.80;;;2.95;;
29686;SDS011;16599;47.078;15.536;2023-05-15T07:27:05;5.78;;;2.83;;
29686;SDS011;16599;47.078;15.536;2023-05-15T07:29:32;2.63;;;2.30;;
29686;SDS011;16599;47.078;15.536;2023-05-15T07:31:59;2.88;;;2.55;;
29686;SDS011;16599;47.078;15.536;2023-05-15T07:34:26;4.03;;;2.30;;
29686;SDS011;16599;47.078;15.536;2023-05-15T07:36:53;4.60;;;2.53;;
29686;SDS011;16599;47.078;15.536;2023-05-15T07:39:20;4.28;;;2.30;;
29686;SDS011;16599;47.078;15.536;2023-05-15T07:41:47;3.08;;;2.42;;
29686;SDS011;16599;47.078;15.536;2023-05-15T07:44:14;5.72;;;2.58;;
29686;SDS011;16599;47.078;15.536;2023-05-15T07:46:41;14.05;;;4.15;;
29686;SDS011;16599;47.078;15.536;2023-05-15T07:49:08;3.70;;;1.85;;
29686;SDS011;16599;47.078;15.536;2023-05-15T07:51:35;2.15;;;1.58;;
29686;SDS011;16599;47.078;15.536;2023-05-15T07:54:01;5.55;;;1.80;;
29686;SDS011;16599;47.078;15.536;2023-05-15T07:56:29;2.10;;;1.73;;
29686;SDS011;16599;47.078;15.536;2023-05-15T07:58:56;3.00;;;1.60;;
29686;SDS011;16599;47.078;15.536;2023-05-15T08:01:23;2.58;;;1.50;;
29686;SDS011;16599;47.078;15.536;2023-05-15T08:03:50;2.17;;;1.50;;
29686;SDS011;16599;47.078;15.536;2023-05-15T08:06:17;2.08;;;1.52;;
29686;SDS011;16599;47.078;15.536;2023-05-15T08:08:44;1.60;;;1.48;;
29686;SDS011;16599;47.078;15.536;2023-05-15T08:11:10;3.85;;;1.70;;
29686;SDS011;16599;47.078;15.536;2023-05-15T08:13:37;1.75;;;1.48;;
29686;SDS011;16599;47.078;15.536;2023-05-15T08:16:04;2.15;;;1.50;;
29686;SDS011;16599;47.078;15.536;2023-05-15T08:18:31;1.95;;;1.27;;
29686;SDS011;16599;47.078;15.536;2023-05-15T08:20:58;2.17;;;1.30;;
29686;SDS011;16599;47.078;15.536;2023-05-15T08:23:26;1.30;;;1.20;;
29686;SDS011;16599;47.078;15.536;2023-05-15T08:25:53;5.35;;;1.70;;
29686;SDS011;16599;47.078;15.536;2023-05-15T08:28:20;1.85;;;1.65;;
29686;SDS011;16599;47.078;15.536;2023-05-15T08:30:46;3.15;;;1.63;;
29686;SDS011;16599;47.078;15.536;2023-05-15T08:33:14;2.38;;;1.80;;
29686;SDS011;16599;47.078;15.536;2023-05-15T08:35:40;1.83;;;1.70;;
29686;SDS011;16599;47.078;15.536;2023-05-15T08:38:07;3.35;;;2.15;;
29686;SDS011;16599;47.078;15.536;2023-05-15T08:40:34;6.25;;;2.05;;
29686;SDS011;16599;47.078;15.536;2023-05-15T08:43:07;3.40;;;2.42;;
29686;SDS011;16599;47.078;15.536;2023-05-15T08:45:40;2.40;;;2.00;;
29686;SDS011;16599;47.078;15.536;2023-05-15T08:48:18;3.80;;;2.08;;
29686;SDS011;16599;47.078;15.536;2023-05-15T08:50:48;2.08;;;1.88;;
29686;SDS011;16599;47.078;15.536;2023-05-15T08:53:15;4.68;;;1.83;;
29686;SDS011;16599;47.078;15.536;2023-05-15T08:55:42;4.38;;;2.50;;
29686;SDS011;16599;47.078;15.536;2023-05-15T08:58:09;6.35;;;3.03;;
29686;SDS011;16599;47.078;15.536;2023-05-15T09:00:37;4.63;;;3.40;;
29686;SDS011;16599;47.078;15.536;2023-05-15T09:03:04;4.97;;;3.72;;
29686;SDS011;16599;47.078;15.536;2023-05-15T09:05:31;6.03;;;3.90;;
29686;SDS011;16599;47.078;15.536;2023-05-15T09:07:58;4.60;;;3.28;;
29686;SDS011;16599;47.078;15.536;2023-05-15T09:10:31;4.35;;;3.65;;
29686;SDS011;16599;47.078;15.536;2023-05-15T09:12:59;6.85;;;3.00;;
29686;SDS011;16599;47.078;15.536;2023-05-15T09:15:27;4.93;;;3.35;;
29686;SDS011;16599;47.078;15.536;2023-05-15T09:17:55;5.72;;;2.72;;
29686;SDS011;16599;47.078;15.536;2023-05-15T09:20:31;9.43;;;2.30;;
29686;SDS011;16599;47.078;15.536;2023-05-15T09:23:00;3.30;;;1.95;;
29686;SDS011;16599;47.078;15.536;2023-05-15T09:28:07;5.65;;;1.10;;
29686;SDS011;16599;47.078;15.536;2023-05-15T09:30:36;6.97;;;1.20;;
29686;SDS011;16599;47.078;15.536;2023-05-15T09:33:04;5.38;;;0.98;;
29686;SDS011;16599;47.078;15.536;2023-05-15T09:35:35;8.52;;;1.50;;
29686;SDS011;16599;47.078;15.536;2023-05-15T09:38:06;3.90;;;1.48;;
29686;SDS011;16599;47.078;15.536;2023-05-15T09:40:34;0.90;;;0.90;;
29686;SDS011;16599;47.078;15.536;2023-05-15T09:43:01;1.08;;;0.70;;
29686;SDS011;16599;47.078;15.536;2023-05-15T09:45:28;0.65;;;0.65;;
29686;SDS011;16599;47.078;15.536;2023-05-15T09:48:02;5.38;;;0.70;;
29686;SDS011;16599;47.078;15.536;2023-05-15T09:50:35;2.15;;;0.60;;
29686;SDS011;16599;47.078;15.536;2023-05-15T09:53:03;1.02;;;0.47;;
29686;SDS011;16599;47.078;15.536;2023-05-15T09:55:31;0.50;;;0.50;;
29686;SDS011;16599;47.078;15.536;2023-05-15T09:58:03;0.95;;;0.60;;
29686;SDS011;16599;47.078;15.536;2023-05-15T10:00:33;2.08;;;0.60;;
29686;SDS011;16599;47.078;15.536;2023-05-15T10:03:01;3.83;;;0.40;;
29686;SDS011;16599;47.078;15.536;2023-05-15T10:05:33;1.58;;;0.98;;
29686;SDS011;16599;47.078;15.536;2023-05-15T10:08:09;2.60;;;0.70;;
29686;SDS011;16599;47.078;15.536;2023-05-15T10:10:36;0.35;;;0.35;;
29686;SDS011;16599;47.078;15.536;2023-05-15T10:13:04;0.77;;;0.30;;
29686;SDS011;16599;47.078;15.536;2023-05-15T10:15:33;0.30;;;0.30;;
29686;SDS011;16599;47.078;15.536;2023-05-15T10:18:00;1.95;;;0.30;;
29686;SDS011;16599;47.078;15.536;2023-05-15T10:20:30;0.13;;;0.13;;
29686;SDS011;16599;47.078;15.536;2023-05-15T10:23:01;0.65;;;0.40;;
29686;SDS011;16599;47.078;15.536;2023-05-15T10:25:41;1.95;;;0.20;;
29686;SDS011;16599;47.078;15.536;2023-05-15T10:28:15;0.85;;;0.20;;
29686;SDS011;16599;47.078;15.536;2023-05-15T10:30:44;2.05;;;0.35;;
29686;SDS011;16599;47.078;15.536;2023-05-15T10:33:11;2.50;;;0.28;;
29686;SDS011;16599;47.078;15.536;2023-05-15T10:35:39;0.20;;;0.20;;
29686;SDS011;16599;47.078;15.536;2023-05-15T10:38:06;1.33;;;0.30;;
29686;SDS011;16599;47.078;15.536;2023-05-15T10:40:35;3.72;;;0.50;;
29686;SDS011;16599;47.078;15.536;2023-05-15T10:43:03;2.08;;;0.35;;
29686;SDS011;16599;47.078;15.536;2023-05-15T10:45:31;0.40;;;0.30;;
29686;SDS011;16599;47.078;15.536;2023-05-15T10:47:58;0.85;;;0.30;;
29686;SDS011;16599;47.078;15.536;2023-05-15T10:50:27;1.85;;;0.43;;
29686;SDS011;16599;47.078;15.536;2023-05-15T10:52:54;0.73;;;0.30;;
29686;SDS011;16599;47.078;15.536;2023-05-15T10:55:21;3.03;;;0.20;;
29686;SDS011;16599;47.078;15.536;2023-05-15T10:57:48;0.20;;;0.20;;
29686;SDS011;16599;47.078;15.536;2023-05-15T11:02:49;0.80;;;0.30;;
29686;SDS011;16599;47.078;15.536;2023-05-15T11:05:22;19.02;;;17.65;;
29686;SDS011;16599;47.078;15.536;2023-05-15T11:10:46;1.33;;;0.90;;
29686;SDS011;16599;47.078;15.536;2023-05-15T11:13:13;1.20;;;1.02;;
29686;SDS011;16599;47.078;15.536;2023-05-15T11:15:44;4.15;;;0.40;;
29686;SDS011;16599;47.078;15.536;2023-05-15T11:18:13;0.35;;;0.35;;
29686;SDS011;16599;47.078;15.536;2023-05-15T11:21:04;4.95;;;2.30;;
29686;SDS011;16599;47.078;15.536;2023-05-15T11:23:36;37.72;;;10.15;;
29686;SDS011;16599;47.078;15.536;2023-05-15T11:26:04;4.05;;;1.02;;
29686;SDS011;16599;47.078;15.536;2023-05-15T11:28:34;0.20;;;0.20;;
29686;SDS011;16599;47.078;15.536;2023-05-15T11:31:07;0.13;;;0.13;;
29686;SDS011;16599;47.078;15.536;2023-05-15T11:33:36;0.30;;;0.30;;
29686;SDS011;16599;47.078;15.536;2023-05-15T11:36:04;0.50;;;0.30;;
29686;SDS011;16599;47.078;15.536;2023-05-15T11:38:35;1.70;;;0.47;;
29686;SDS011;16599;47.078;15.536;2023-05-15T11:41:15;4.45;;;1.17;;
29686;SDS011;16599;47.078;15.536;2023-05-15T11:43:43;0.85;;;0.50;;
29686;SDS011;16599;47.078;15.536;2023-05-15T11:46:10;0.57;;;0.40;;
29686;SDS011;16599;47.078;15.536;2023-05-15T11:48:40;1.45;;;0.43;;
29686;SDS011;16599;47.078;15.536;2023-05-15T11:51:20;0.63;;;0.20;;
29686;SDS011;16599;47.078;15.536;2023-05-15T11:53:52;2.72;;;0.75;;
29686;SDS011;16599;47.078;15.536;2023-05-15T11:56:23;1.63;;;0.40;;
29686;SDS011;16599;47.078;15.536;2023-05-15T11:58:55;2.60;;;0.50;;
29686;SDS011;16599;47.078;15.536;2023-05-15T12:01:24;8.18;;;0.85;;
29686;SDS011;16599;47.078;15.536;2023-05-15T12:03:51;0.38;;;0.35;;
29686;SDS011;16599;47.078;15.536;2023-05-15T12:06:20;2.50;;;0.70;;
29686;SDS011;16599;47.078;15.536;2023-05-15T12:08:51;0.57;;;0.30;;
29686;SDS011;16599;47.078;15.536;2023-05-15T12:11:22;2.35;;;0.50;;
29686;SDS011;16599;47.078;15.536;2023-05-15T12:13:50;3.08;;;0.60;;
29686;SDS011;16599;47.078;15.536;2023-05-15T12:16:25;0.30;;;0.30;;
29686;SDS011;16599;47.078;15.536;2023-05-15T12:18:56;6.25;;;0.90;;
29686;SDS011;16599;47.078;15.536;2023-05-15T12:21:27;0.73;;;0.30;;
29686;SDS011;16599;47.078;15.536;2023-05-15T12:23:54;2.00;;;0.30;;
29686;SDS011;16599;47.078;15.536;2023-05-15T12:26:24;1.08;;;0.28;;
29686;SDS011;16599;47.078;15.536;2023-05-15T12:28:52;1.70;;;0.43;;
29686;SDS011;16599;47.078;15.536;2023-05-15T12:31:20;0.50;;;0.40;;
29686;SDS011;16599;47.078;15.536;2023-05-15T12:33:48;0.93;;;0.52;;
29686;SDS011;16599;47.078;15.536;2023-05-15T12:36:18;1.90;;;0.30;;
29686;SDS011;16599;47.078;15.536;2023-05-15T12:38:47;3.80;;;0.40;;
29686;SDS011;16599;47.078;15.536;2023-05-15T12:41:14;3.63;;;0.50;;
29686;SDS011;16599;47.078;15.536;2023-05-15T12:43:41;4.43;;;0.50;;
29686;SDS011;16599;47.078;15.536;2023-05-15T12:46:08;0.40;;;0.35;;
29686;SDS011;16599;47.078;15.536;2023-05-15T12:48:38;2.65;;;0.20;;
29686;SDS011;16599;47.078;15.536;2023-05-15T12:51:06;3.15;;;0.30;;
29686;SDS011;16599;47.078;15.536;2023-05-15T12:53:33;0.90;;;0.40;;
29686;SDS011;16599;47.078;15.536;2023-05-15T12:56:01;0.60;;;0.40;;
29686;SDS011;16599;47.078;15.536;2023-05-15T12:58:29;0.30;;;0.30;;
29686;SDS011;16599;47.078;15.536;2023-05-15T13:00:56;1.30;;;0.40;;
29686;SDS011;16599;47.078;15.536;2023-05-15T13:03:24;0.68;;;0.50;;
29686;SDS011;16599;47.078;15.536;2023-05-15T13:05:53;0.40;;;0.30;;
29686;SDS011;16599;47.078;15.536;2023-05-15T13:08:20;4.20;;;0.50;;
29686;SDS011;16599;47.078;15.536;2023-05-15T13:10:54;1.92;;;0.40;;
29686;SDS011;16599;47.078;15.536;2023-05-15T13:13:22;1.75;;;0.35;;
29686;SDS011;16599;47.078;15.536;2023-05-15T13:15:49;2.30;;;0.40;;
29686;SDS011;16599;47.078;15.536;2023-05-15T13:18:16;1.48;;;0.38;;
29686;SDS011;16599;47.078;15.536;2023-05-15T13:20:49;0.50;;;0.47;;
29686;SDS011;16599;47.078;15.536;2023-05-15T13:23:17;0.50;;;0.40;;
29686;SDS011;16599;47.078;15.536;2023-05-15T13:25:45;2.30;;;0.32;;
29686;SDS011;16599;47.078;15.536;2023-05-15T13:28:13;0.80;;;0.50;;
29686;SDS011;16599;47.078;15.536;2023-05-15T13:30:40;2.28;;;0.40;;
29686;SDS011;16599;47.078;15.536;2023-05-15T13:33:08;4.25;;;0.50;;
29686;SDS011;16599;47.078;15.536;2023-05-15T13:35:36;0.88;;;0.25;;
29686;SDS011;16599;47.078;15.536;2023-05-15T13:38:04;5.57;;;0.40;;
29686;SDS011;16599;47.078;15.536;2023-05-15T13:40:33;0.50;;;0.40;;
29686;SDS011;16599;47.078;15.536;2023-05-15T13:43:02;1.23;;;0.35;;
29686;SDS011;16599;47.078;15.536;2023-05-15T13:45:31;1.02;;;0.50;;
29686;SDS011;16599;47.078;15.536;2023-05-15T13:47:58;0.43;;;0.40;;
29686;SDS011;16599;47.078;15.536;2023-05-15T13:50:26;1.60;;;0.30;;
29686;SDS011;16599;47.078;15.536;2023-05-15T13:52:53;4.60;;;0.73;;
29686;SDS011;16599;47.078;15.536;2023-05-15T13:55:20;0.40;;;0.35;;
29686;SDS011;16599;47.078;15.536;2023-05-15T13:57:48;7.22;;;0.70;;
29686;SDS011;16599;47.078;15.536;2023-05-15T14:00:16;0.30;;;0.30;;
29686;SDS011;16599;47.078;15.536;2023-05-15T14:02:43;0.40;;;0.25;;
29686;SDS011;16599;47.078;15.536;2023-05-15T14:05:11;0.65;;;0.30;;
29686;SDS011;16599;47.078;15.536;2023-05-15T14:07:39;2.53;;;0.22;;
29686;SDS011;16599;47.078;15.536;2023-05-15T14:10:07;0.38;;;0.30;;
29686;SDS011;16599;47.078;15.536;2023-05-15T14:12:35;2.08;;;0.40;;
29686;SDS011;16599;47.078;15.536;2023-05-15T14:15:02;2.72;;;0.20;;
29686;SDS011;16599;47.078;15.536;2023-05-15T14:17:29;0.45;;;0.30;;
29686;SDS011;16599;47.078;15.536;2023-05-15T14:19:56;2.13;;;0.40;;
29686;SDS011;16599;47.078;15.536;2023-05-15T14:22:23;0.55;;;0.30;;
29686;SDS011;16599;47.078;15.536;2023-05-15T14:24:53;0.52;;;0.40;;
29686;SDS011;16599;47.078;15.536;2023-05-15T14:27:20;1.00;;;0.30;;
29686;SDS011;16599;47.078;15.536;2023-05-15T14:29:47;2.50;;;0.38;;
29686;SDS011;16599;47.078;15.536;2023-05-15T14:32:16;1.20;;;0.22;;
29686;SDS011;16599;47.078;15.536;2023-05-15T14:34:43;3.33;;;0.40;;
29686;SDS011;16599;47.078;15.536;2023-05-15T14:37:10;3.30;;;0.55;;
29686;SDS011;16599;47.078;15.536;2023-05-15T14:39:37;0.30;;;0.30;;
29686;SDS011;16599;47.078;15.536;2023-05-15T14:42:04;3.10;;;0.38;;
29686;SDS011;16599;47.078;15.536;2023-05-15T14:44:32;1.67;;;0.43;;
29686;SDS011;16599;47.078;15.536;2023-05-15T14:47:06;0.28;;;0.28;;
29686;SDS011;16599;47.078;15.536;2023-05-15T14:49:42;0.25;;;0.20;;
29686;SDS011;16599;47.078;15.536;2023-05-15T14:52:09;5.25;;;1.92;;